首页
METAR-TAF:

METAR-TAF

机场 :

蘇聖瑪麗, 密歇根州, 美国

纬度: 46-15N, 经度: 084-28W, 海拔: 244米

当前天气观测

该预报发布于48分钟前的17:56 UTC
风速8节,风向东转东南
温度 -9°C
湿度 79%
气压 1040 hPa
能見度: 4.8公里
阴天层高于2700英尺
小雪

METAR: KCIU 171756Z AUTO 11008KT 3SM -SN OVC027 M09/M12 A3072 RMK AO2 SLP422 P0000 60000 T10941122 11094 21133 58027 FZRANO

时间: 13:44 (18:44 UTC)


TAF: 丢失

超过4000个机场的气象观测和天气预报(METAR&TAF报告)。

可查询的气象台以黄色和红色小点在地图上表示。

将鼠标移到小点上方,可查看气象台名称。

然后点击查看天气观测和预报。

如需切换地图:点击带黑十字的绿色按钮放大地图;点击带横线的绿色按钮缩小地图;或者点击绿色箭头查看邻近地区的地图。


METAR-TAF: